<?xml version="1.0" encoding="UTF-8" standalone="no" ?>
<gpx xmlns="http://www.topografix.com/GPX/1/1" xmlns:xsi="http://www.w3.org/2001/XMLSchema-instance" xsi:schemaLocation="http://www.topografix.com/GPX/1/1 http://www.topografix.com/GPX/1/1/gpx.xsd" version="1.1" creator="VisuGPX - https://www.visugpx.com">
  <metadata>
    <name>boucles beaumont</name>
    <desc><![CDATA[boucles beaumont du périgord]]></desc>
  </metadata>
  <trk>
    <name><![CDATA[BBmt23]]></name>
    <trkseg>
      <trkpt lat="44.77788" lon="0.81603">
        <ele>158</ele>
        <time>2008-12-18T15:17:48Z</time>
      </trkpt>
      <trkpt lat="44.77738" lon="0.81653">
        <ele>152</ele>
        <time>2008-12-18T15:18:01Z</time>
      </trkpt>
      <trkpt lat="44.7772" lon="0.81665">
        <ele>152</ele>
        <time>2008-12-18T15:18:08Z</time>
      </trkpt>
      <trkpt lat="44.777" lon="0.81683">
        <ele>154</ele>
        <time>2008-12-18T15:18:12Z</time>
      </trkpt>
      <trkpt lat="44.77678" lon="0.81703">
        <ele>156</ele>
        <time>2008-12-18T15:18:15Z</time>
      </trkpt>
      <trkpt lat="44.77658" lon="0.81723">
        <ele>158</ele>
        <time>2008-12-18T15:18:18Z</time>
      </trkpt>
      <trkpt lat="44.7764" lon="0.81738">
        <ele>160</ele>
        <time>2008-12-18T15:18:22Z</time>
      </trkpt>
      <trkpt lat="44.77623" lon="0.8173">
        <ele>162</ele>
        <time>2008-12-18T15:18:34Z</time>
      </trkpt>
      <trkpt lat="44.77605" lon="0.81713">
        <ele>163</ele>
        <time>2008-12-18T15:18:38Z</time>
      </trkpt>
      <trkpt lat="44.7759" lon="0.81695">
        <ele>163</ele>
        <time>2008-12-18T15:18:42Z</time>
      </trkpt>
      <trkpt lat="44.77575" lon="0.8168">
        <ele>164</ele>
        <time>2008-12-18T15:18:47Z</time>
      </trkpt>
      <trkpt lat="44.7756" lon="0.8166">
        <ele>162</ele>
        <time>2008-12-18T15:18:58Z</time>
      </trkpt>
      <trkpt lat="44.77543" lon="0.81645">
        <ele>162</ele>
        <time>2008-12-18T15:19:01Z</time>
      </trkpt>
      <trkpt lat="44.77528" lon="0.8163">
        <ele>161</ele>
        <time>2008-12-18T15:19:04Z</time>
      </trkpt>
      <trkpt lat="44.7751" lon="0.81618">
        <ele>161</ele>
        <time>2008-12-18T15:19:07Z</time>
      </trkpt>
      <trkpt lat="44.77493" lon="0.81605">
        <ele>161</ele>
        <time>2008-12-18T15:19:11Z</time>
      </trkpt>
      <trkpt lat="44.77475" lon="0.8159">
        <ele>160</ele>
        <time>2008-12-18T15:19:15Z</time>
      </trkpt>
      <trkpt lat="44.77458" lon="0.81578">
        <ele>159</ele>
        <time>2008-12-18T15:19:19Z</time>
      </trkpt>
      <trkpt lat="44.77438" lon="0.8157">
        <ele>159</ele>
        <time>2008-12-18T15:19:23Z</time>
      </trkpt>
      <trkpt lat="44.7742" lon="0.8158">
        <ele>161</ele>
        <time>2008-12-18T15:19:29Z</time>
      </trkpt>
    </trkseg>
  </trk>
</gpx>